»·PEaware :: ASH5963 KPHX-KSNA

ASH5963 :: KPHX-KSNA

FLIGHT INFORMATION

Flight Status: Arrived
Operator:
Mesa Airlines
More flights by this operator :: More flights under this callsign
Pilot: Chandler Senior (807)
Aircraft: CANADAIR CL-600 CRJ-200
(CRJ2)
More flights by this aircraft type
Origin: KPHX Phoenix Sky Harbor Intl
United States
Destination: KSNA John Wayne-Orange Co
United States
More flights between these airports :: More routes between these airports
Route: IZZZO6 HRRBR EMLLD DSNEE1
File this flight plan on PilotEdge
Remarks:
Altitude:
(Current/Filed)
28,000ft
Speed:
(Current/Filed)
300kts
Departed: 08-Aug-17 09:47 PM
Arrived: 08-Aug-17 10:39 PM
Distance/Time
Traveled:
293nm/0:52
Distance/Time
To Go:
Arrived

Flight Plot

Page will automatically refresh every two minutes.

Flight plan parsing failed; only flown route is shown


Map Options




Map Legend


Flown Route
Filed Route
Departure Airport
Arrival Airport
Navaid (VOR, NDB)
Fix

Horizontal Profiles

Position Reports

Time Latitude Longitude Heading Altitude Ground
Speed
08-Aug-17 21:30 33.436701 -111.993778 259 1139ft 0kts
08-Aug-17 21:31 33.436701 -111.993778 259 1139ft 0kts
08-Aug-17 21:32 33.436701 -111.993778 259 1139ft 0kts
08-Aug-17 21:33 33.436701 -111.993778 259 1139ft 0kts
08-Aug-17 21:34 33.436701 -111.993778 259 1139ft 0kts
08-Aug-17 21:35 33.436701 -111.993778 259 1139ft 0kts
08-Aug-17 21:36 33.436701 -111.993778 259 1139ft 0kts
08-Aug-17 21:37 33.436701 -111.993778 259 1139ft 0kts
08-Aug-17 21:38 33.436701 -111.993778 259 1139ft 0kts
08-Aug-17 21:39 33.436701 -111.993778 259 1139ft 0kts
08-Aug-17 21:40 33.436701 -111.993778 259 1139ft 0kts
08-Aug-17 21:41 33.436701 -111.993778 259 1139ft 0kts
08-Aug-17 21:42 33.436701 -111.993778 259 1139ft 0kts
08-Aug-17 21:43 33.436701 -111.993775 259 1139ft 0kts
08-Aug-17 21:44 33.437284 -111.992999 0 1139ft 2kts
08-Aug-17 21:45 33.437291 -111.992999 0 1139ft 0kts
08-Aug-17 21:46 33.437599 -111.992997 0 1139ft 7kts
08-Aug-17 21:47 33.438325 -111.992992 0 1139ft 0kts
08-Aug-17 21:48 33.439668 -111.992264 2 1139ft 14kts
08-Aug-17 21:49 33.439872 -111.992259 0 1139ft 0kts
08-Aug-17 21:50 33.440857 -111.998938 269 1139ft 109kts
08-Aug-17 21:51 33.441296 -112.077150 272 3115ft 344kts
08-Aug-17 21:52 33.443317 -112.184826 271 6796ft 279kts
08-Aug-17 21:53 33.444801 -112.269089 271 8191ft 275kts
08-Aug-17 21:54 33.446404 -112.364386 271 9281ft 338kts
08-Aug-17 21:55 33.448265 -112.480552 271 11929ft 364kts
08-Aug-17 21:56 33.450215 -112.602496 270 14814ft 373kts
08-Aug-17 21:57 33.451935 -112.725108 269 17759ft 370kts
08-Aug-17 21:58 33.461674 -112.845224 279 20698ft 360kts
08-Aug-17 21:59 33.482510 -112.957647 278 23611ft 336kts
08-Aug-17 22:00 33.502698 -113.067027 278 26603ft 341kts
08-Aug-17 22:01 33.523937 -113.182562 278 28018ft 393kts
08-Aug-17 22:02 33.549887 -113.323574 279 28004ft 456kts
08-Aug-17 22:03 33.576631 -113.469439 279 27981ft 443kts
08-Aug-17 22:04 33.603188 -113.612720 279 27963ft 438kts
08-Aug-17 22:05 33.629411 -113.754006 278 27931ft 435kts
08-Aug-17 22:06 33.661232 -113.893552 290 27928ft 438kts
08-Aug-17 22:07 33.711922 -114.025990 290 27924ft 437kts
08-Aug-17 22:08 33.760048 -114.161200 276 27914ft 441kts
08-Aug-17 22:09 33.776898 -114.307481 275 27927ft 447kts
08-Aug-17 22:10 33.794185 -114.456298 275 27924ft 451kts
08-Aug-17 22:11 33.810699 -114.600140 275 27923ft 453kts
08-Aug-17 22:12 33.827619 -114.749144 274 27927ft 454kts
08-Aug-17 22:13 33.844519 -114.899607 274 27926ft 455kts
08-Aug-17 22:14 33.861308 -115.049689 274 27925ft 455kts
08-Aug-17 22:15 33.878026 -115.201091 273 27925ft 457kts
08-Aug-17 22:16 33.894445 -115.352581 273 27901ft 458kts
08-Aug-17 22:17 33.910764 -115.504189 273 27906ft 459kts
08-Aug-17 22:18 33.926435 -115.656102 270 27911ft 457kts
08-Aug-17 22:19 33.937419 -115.807473 270 27931ft 457kts
08-Aug-17 22:20 33.948144 -115.960205 270 27945ft 457kts
08-Aug-17 22:21 33.958663 -116.112845 270 27959ft 457kts
08-Aug-17 22:22 33.957651 -116.259684 258 26357ft 423kts
08-Aug-17 22:23 33.941447 -116.391638 258 23328ft 399kts
08-Aug-17 22:24 33.925583 -116.519575 258 20877ft 372kts
08-Aug-17 22:25 33.910300 -116.639056 258 19834ft 364kts
08-Aug-17 22:26 33.895286 -116.755340 259 17179ft 352kts
08-Aug-17 22:27 33.883050 -116.866563 259 14949ft 334kts
08-Aug-17 22:28 33.871075 -116.974867 260 12992ft 323kts
08-Aug-17 22:29 33.861210 -117.064393 261 13008ft 329kts
08-Aug-17 22:30 33.847225 -117.190089 261 11265ft 328kts
08-Aug-17 22:31 33.835396 -117.295879 261 9561ft 313kts
08-Aug-17 22:32 33.823917 -117.396988 261 8016ft 300kts
08-Aug-17 22:33 33.812489 -117.471652 269 7974ft 262kts
08-Aug-17 22:34 33.816896 -117.557436 292 6421ft 269kts
08-Aug-17 22:35 33.848738 -117.649036 292 4972ft 247kts
08-Aug-17 22:36 33.867922 -117.716750 258 4663ft 213kts
08-Aug-17 22:37 33.838393 -117.765233 216 3970ft 213kts
08-Aug-17 22:38 33.790124 -117.796204 208 3408ft 200kts
08-Aug-17 22:39 33.740411 -117.827965 208 1950ft 195kts
08-Aug-17 22:40 33.700500 -117.853236 206 597ft 140kts
08-Aug-17 22:41 33.671548 -117.871514 208 61ft 47kts
08-Aug-17 22:42 33.669828 -117.870163 40 61ft 18kts
08-Aug-17 22:43 33.674178 -117.866390 28 61ft 18kts
08-Aug-17 22:44 33.679103 -117.863257 35 61ft 12kts
08-Aug-17 22:45 33.679041 -117.862521 117 61ft 0kts
08-Aug-17 22:46 33.679034 -117.862504 117 61ft 0kts

Navigation Log

Ident Type
Flight plan parsing failed, navigation log unavailable